Time;durP1;ratioP1;P1;durP2;ratioP2;P2;SDS_P1;SDS_P2;PMS_P1;PMS_P2;Temp;Humidity;BMP_temperature;BMP_pressure;BME280_temperature;BME280_humidity;BME280_pressure;Samples;Min_cycle;Max_cycle;Signal;HPM_P1;HPM_P2
2022/11/11 00:01:36;;;;;;;38.20;17.52;;;;;;;8.32;100.00;99785.66;4996729;28;20093;-44
2022/11/11 00:04:20;;;;;;;46.22;20.02;;;;;;;8.35;100.00;99794.19;4999276;28;20505;-46
2022/11/11 00:07:05;;;;;;;38.33;16.13;;;;;;;8.33;100.00;99782.13;5007009;28;20508;-45
2022/11/11 00:09:49;;;;;;;52.75;21.17;;;;;;;8.35;100.00;99783.81;4996756;28;20517;-47
2022/11/11 00:12:33;;;;;;;44.88;18.23;;;;;;;8.31;100.00;99768.41;5005544;28;20425;-43
2022/11/11 00:15:18;;;;;;;40.83;18.80;;;;;;;8.21;100.00;99756.53;5016123;28;20034;-44
2022/11/11 00:27:34;;;;;;;47.80;18.98;;;;;;;8.27;100.00;99777.91;4996189;28;20107;-43
2022/11/11 00:30:19;;;;;;;50.00;18.75;;;;;;;8.28;100.00;99769.28;5006296;28;20089;-47
2022/11/11 00:33:03;;;;;;;42.85;18.00;;;;;;;8.25;100.00;99776.28;5007474;28;20038;-44
2022/11/11 00:35:54;;;;;;;44.03;17.92;;;;;;;8.23;100.00;99773.72;5006587;28;20436;-43
2022/11/11 00:38:46;;;;;;;38.20;16.50;;;;;;;8.27;100.00;99777.91;4994482;28;20422;-44
2022/11/11 00:41:31;;;;;;;43.20;18.35;;;;;;;8.24;100.00;99779.75;5018641;28;20091;-45
2022/11/11 00:44:15;;;;;;;44.08;17.92;;;;;;;8.21;100.00;99769.47;5006568;28;20042;-46
2022/11/11 00:53:11;;;;;;;29.60;15.02;;;;;;;8.24;100.00;99764.19;5008343;28;20556;-44
2022/11/11 00:55:56;;;;;;;39.03;15.77;;;;;;;8.22;100.00;99765.97;5024947;28;20136;-47
2022/11/11 00:58:40;;;;;;;38.50;17.20;;;;;;;8.28;100.00;99771.00;5007363;28;20048;-45
2022/11/11 01:01:24;;;;;;;42.45;17.13;;;;;;;8.34;100.00;99765.72;5010075;28;20417;-46
2022/11/11 01:04:09;;;;;;;38.22;16.75;;;;;;;8.36;100.00;99771.72;5011958;28;20559;-45
2022/11/11 01:06:54;;;;;;;34.00;15.15;;;;;;;8.34;100.00;99768.31;4996398;28;20544;-47
2022/11/11 01:09:39;;;;;;;34.10;14.82;;;;;;;8.23;100.00;99752.13;5004899;28;20137;-46
2022/11/11 01:12:23;;;;;;;36.55;16.27;;;;;;;8.17;100.00;99737.59;5010357;28;20108;-48
2022/11/11 01:15:08;;;;;;;37.45;16.02;;;;;;;8.40;100.00;99760.41;5002817;28;20041;-45
2022/11/11 01:17:52;;;;;;;34.25;14.10;;;;;;;8.39;100.00;99772.50;5011735;28;20080;-45
2022/11/11 01:20:38;;;;;;;20.80;9.43;;;;;;;8.38;100.00;99781.16;5008175;28;20053;-45
2022/11/11 01:23:23;;;;;;;30.27;14.88;;;;;;;8.40;100.00;99765.56;5009169;28;20046;-45
2022/11/11 01:26:23;;;;;;;34.15;15.80;;;;;;;8.45;100.00;99768.91;5025562;28;20042;-44
2022/11/11 01:29:07;;;;;;;31.30;14.93;;;;;;;8.46;100.00;99763.69;5010154;28;20057;-44
2022/11/11 01:31:52;;;;;;;31.63;14.93;;;;;;;8.46;100.00;99762.84;5003859;28;20551;-44
2022/11/11 01:34:36;;;;;;;31.08;15.15;;;;;;;8.44;100.00;99768.06;5002336;28;20034;-45
2022/11/11 01:37:20;;;;;;;32.60;13.70;;;;;;;8.43;100.00;99766.34;5009908;28;20046;-44
2022/11/11 01:40:06;;;;;;;34.20;15.85;;;;;;;8.41;100.00;99770.72;5011532;28;20037;-43
2022/11/11 01:42:52;;;;;;;30.02;13.15;;;;;;;8.40;100.00;99776.78;5008965;28;20564;-43
2022/11/11 01:45:48;;;;;;;29.35;14.63;;;;;;;8.39;100.00;99761.28;5008703;28;20056;-43
2022/11/11 01:52:02;;;;;;;;;;;;;;;8.40;100.00;99775.94;5009247;28;20044;-46
2022/11/11 01:54:55;;;;;;;28.08;13.27;;;;;;;8.32;100.00;99767.50;5012233;28;19971;-45
2022/11/11 01:57:56;;;;;;;31.90;13.48;;;;;;;8.36;100.00;99771.72;4991155;28;20522;-44
2022/11/11 02:00:41;;;;;;;32.10;11.68;;;;;;;8.35;100.00;99757.91;5026438;28;20040;-45
2022/11/11 02:03:26;;;;;;;23.30;11.10;;;;;;;8.21;100.00;99748.75;4996581;28;20531;-44
2022/11/11 02:06:11;;;;;;;28.52;13.32;;;;;;;8.23;100.00;99741.78;5011124;28;20429;-47
2022/11/11 02:08:55;;;;;;;27.23;12.15;;;;;;;8.27;100.00;99753.78;5008500;28;20473;-48
2022/11/11 02:14:47;;;;;;;27.52;12.93;;;;;;;8.41;100.00;99765.53;5010108;28;20045;-47
2022/11/11 02:17:32;;;;;;;27.55;12.70;;;;;;;8.42;100.00;99772.44;5021109;28;20181;-45
2022/11/11 02:20:24;;;;;;;29.08;12.13;;;;;;;8.17;100.00;99739.31;5009816;28;20124;-45
2022/11/11 02:23:17;;;;;;;23.63;10.73;;;;;;;8.33;100.00;99770.03;5009488;28;20050;-44
2022/11/11 02:26:03;;;;;;;24.75;10.95;;;;;;;8.30;100.00;99766.69;5021307;28;20091;-43
2022/11/11 02:28:48;;;;;;;22.63;11.20;;;;;;;8.30;100.00;99762.34;4983813;28;20042;-46
2022/11/11 02:31:32;;;;;;;24.60;11.88;;;;;;;8.17;100.00;99741.91;5009516;28;20041;-42
2022/11/11 02:34:17;;;;;;;28.52;12.30;;;;;;;8.14;100.00;99724.72;5008996;28;20088;-42
2022/11/11 02:37:03;;;;;;;24.15;11.65;;;;;;;8.04;100.00;99707.72;5010102;28;20052;-46
2022/11/11 02:39:49;;;;;;;23.80;11.18;;;;;;;8.34;100.00;99766.56;5014574;28;20045;-45
2022/11/11 02:42:35;;;;;;;25.13;10.73;;;;;;;8.15;100.00;99734.22;5008563;28;20046;-45
2022/11/11 02:45:19;;;;;;;23.88;11.43;;;;;;;8.15;100.00;99731.63;5002065;28;20045;-45
2022/11/11 02:48:03;;;;;;;23.25;11.00;;;;;;;8.33;100.00;99769.19;5009385;28;20046;-45
2022/11/11 02:50:48;;;;;;;26.60;11.10;;;;;;;8.32;100.00;99773.50;5011553;28;20045;-48
2022/11/11 02:53:33;;;;;;;19.13;9.27;;;;;;;8.31;100.00;99768.41;4999246;28;20042;-48
2022/11/11 02:57:06;;;;;;;24.45;11.02;;;;;;;8.30;100.00;99769.28;4989877;28;20042;-45
2022/11/11 02:59:22;;;;;;;26.20;11.57;;;;;;;8.28;100.00;99771.88;5008619;28;20141;-44
2022/11/11 03:02:07;;;;;;;24.30;10.32;;;;;;;8.31;100.00;99768.41;5022413;28;20081;-48
2022/11/11 03:04:51;;;;;;;21.27;9.85;;;;;;;8.36;100.00;99762.22;5005980;28;20523;-45
2022/11/11 03:07:35;;;;;;;18.80;8.75;;;;;;;8.34;100.00;99774.34;4990301;28;20053;-43
2022/11/11 03:10:19;;;;;;;19.08;9.40;;;;;;;8.19;100.00;99741.00;4994599;28;20042;-46
2022/11/11 03:13:04;;;;;;;18.17;8.45;;;;;;;8.07;100.00;99725.75;5008890;28;20080;-47
2022/11/11 03:15:48;;;;;;;16.67;8.30;;;;;;;8.13;100.00;99733.38;5009891;28;20095;-43
2022/11/11 03:18:33;;;;;;;22.98;8.63;;;;;;;8.32;100.00;99759.75;4997092;28;20104;-45
2022/11/11 03:21:17;;;;;;;16.95;9.25;;;;;;;8.14;100.00;99736.81;4993524;28;20058;-46
2022/11/11 03:24:02;;;;;;;18.38;9.05;;;;;;;8.34;100.00;99761.38;5006789;28;20048;-45
2022/11/11 03:26:47;;;;;;;16.20;8.63;;;;;;;8.38;100.00;99763.00;5006887;28;20034;-45
2022/11/11 03:29:31;;;;;;;17.50;8.90;;;;;;;8.32;100.00;99770.94;4993252;28;20193;-44
2022/11/11 03:32:15;;;;;;;13.85;5.85;;;;;;;8.38;100.00;99767.34;5008126;28;20042;-43
2022/11/11 03:35:00;;;;;;;16.23;8.48;;;;;;;8.36;100.00;99767.41;5009752;28;20139;-44
2022/11/11 03:40:53;;;;;;;14.48;8.07;;;;;;;8.31;100.00;99787.38;5021322;28;20045;-43
2022/11/11 03:43:38;;;;;;;17.45;8.32;;;;;;;8.26;100.00;99776.25;5003172;28;20041;-46
2022/11/11 03:46:23;;;;;;;16.75;8.50;;;;;;;8.32;100.00;99776.09;5022625;28;20034;-47
2022/11/11 03:49:07;;;;;;;14.68;7.50;;;;;;;8.16;100.00;99743.69;5007717;28;20073;-44
2022/11/11 03:51:51;;;;;;;12.70;7.90;;;;;;;8.34;100.00;99773.50;4990529;28;20144;-46
2022/11/11 03:54:36;;;;;;;16.58;8.40;;;;;;;8.30;100.00;99779.63;5004479;28;20041;-44
2022/11/11 03:57:29;;;;;;;14.10;8.35;;;;;;;8.34;100.00;99774.34;5022850;28;20521;-44
2022/11/11 04:00:16;;;;;;;15.85;8.13;;;;;;;8.36;100.00;99772.56;5007171;28;20053;-43
2022/11/11 04:12:15;;;;;;;12.77;6.63;;;;;;;8.25;100.00;99758.13;5010009;28;20140;-45
2022/11/11 04:18:02;;;;;;;13.05;7.70;;;;;;;8.47;100.00;99793.06;5009601;28;20084;-44
2022/11/11 04:23:50;;;;;;;10.82;6.25;;;;;;;8.44;100.00;99796.56;5011259;28;20048;-43
2022/11/11 04:26:34;;;;;;;17.55;8.05;;;;;;;8.45;100.00;99800.00;5011469;28;20556;-44
2022/11/11 04:29:27;;;;;;;10.60;6.20;;;;;;;8.45;100.00;99793.06;5011424;28;20041;-45
2022/11/11 04:32:37;;;;;;;14.50;7.47;;;;;;;8.47;100.00;99803.41;5005497;28;20034;-46
2022/11/11 04:35:22;;;;;;;13.75;7.25;;;;;;;8.47;100.00;99806.00;5009295;28;20080;-44
2022/11/11 04:41:11;;;;;;;16.55;8.73;;;;;;;8.36;100.00;99785.53;5009451;28;20045;-45
2022/11/11 04:46:59;;;;;;;18.80;8.90;;;;;;;8.47;100.00;99814.63;5022757;28;20080;-44
2022/11/11 04:49:44;;;;;;;14.93;7.47;;;;;;;8.48;100.00;99824.09;5011062;28;20050;-43
2022/11/11 04:52:30;;;;;;;14.00;7.32;;;;;;;8.47;100.00;99821.56;5009075;28;21153;-47
2022/11/11 04:58:19;;;;;;;16.30;7.72;;;;;;;8.44;100.00;99814.69;5021129;28;20529;-43
2022/11/11 05:01:04;;;;;;;14.30;7.45;;;;;;;8.43;100.00;99818.16;5024897;28;20068;-42
2022/11/11 05:03:48;;;;;;;16.10;7.93;;;;;;;8.46;100.00;99812.91;5003028;28;20452;-46
2022/11/11 05:09:36;;;;;;;17.95;8.52;;;;;;;8.52;100.00;99829.22;4998111;28;20052;-45
2022/11/11 05:12:21;;;;;;;14.85;7.93;;;;;;;8.51;100.00;99825.75;4994015;28;20841;-47
2022/11/11 05:21:27;;;;;;;15.07;8.52;;;;;;;8.49;100.00;99817.16;5009636;28;20136;-45
2022/11/11 05:27:19;;;;;;;13.88;7.78;;;;;;;8.65;100.00;99823.69;5010346;28;20042;-47
2022/11/11 05:30:05;;;;;;;13.85;7.53;;;;;;;8.71;100.00;99825.28;5001313;28;20060;-44
2022/11/11 05:32:49;;;;;;;14.20;7.90;;;;;;;8.67;100.00;99818.47;5036042;28;20052;-45
2022/11/11 05:35:35;;;;;;;13.23;7.70;;;;;;;8.63;100.00;99829.81;5013446;28;20881;-45
2022/11/11 05:38:19;;;;;;;22.23;8.20;;;;;;;8.63;100.00;99830.66;5026487;28;20049;-45
2022/11/11 05:41:04;;;;;;;12.00;7.13;;;;;;;8.62;100.00;99830.69;5008219;28;20034;-47
2022/11/11 05:43:49;;;;;;;12.20;7.28;;;;;;;8.62;100.00;99843.66;5005088;28;20046;-45
2022/11/11 05:46:34;;;;;;;11.52;6.95;;;;;;;8.50;100.00;99819.72;4993870;28;20073;-48
2022/11/11 05:49:18;;;;;;;12.90;6.90;;;;;;;8.54;100.00;99840.38;5016491;28;20041;-49
2022/11/11 05:52:04;;;;;;;12.18;7.38;;;;;;;8.54;100.00;99836.03;5030290;28;20077;-43
2022/11/11 05:54:49;;;;;;;16.33;7.65;;;;;;;8.54;100.00;99843.81;5011495;28;20057;-45
2022/11/11 05:57:33;;;;;;;12.93;7.57;;;;;;;8.55;100.00;99839.50;5002443;28;20049;-48
2022/11/11 06:00:18;;;;;;;15.35;7.40;;;;;;;8.52;100.00;99848.19;5009643;28;20046;-46
2022/11/11 06:03:04;;;;;;;12.65;6.57;;;;;;;8.53;100.00;99849.88;4996499;28;20501;-53
2022/11/11 06:05:49;;;;;;;13.43;6.05;;;;;;;8.57;100.00;99854.13;4984088;28;20034;-46
2022/11/11 06:08:33;;;;;;;11.10;5.82;;;;;;;8.54;100.00;99850.72;5009460;28;20065;-44
2022/11/11 06:11:17;;;;;;;12.32;6.80;;;;;;;8.56;100.00;99862.78;5009199;28;20052;-43
2022/11/11 06:14:02;;;;;;;14.00;7.32;;;;;;;8.56;100.00;99857.59;5023887;28;20514;-45
2022/11/11 06:16:46;;;;;;;11.35;5.78;;;;;;;8.54;100.00;99858.50;5009254;28;20048;-45
2022/11/11 06:19:31;;;;;;;10.25;6.47;;;;;;;8.57;100.00;99866.22;5008343;28;20041;-44
2022/11/11 06:22:54;;;;;;;10.88;5.75;;;;;;;8.57;100.00;99861.91;5007877;28;20554;-45
2022/11/11 06:28:23;;;;;;;13.85;6.80;;;;;;;8.60;100.00;99872.19;5019378;28;20042;-45
2022/11/11 06:31:09;;;;;;;10.77;5.85;;;;;;;8.60;100.00;99864.41;5004818;28;20061;-43
2022/11/11 06:33:54;;;;;;;10.15;5.43;;;;;;;8.57;100.00;99874.84;4989364;28;20072;-45
2022/11/11 06:36:38;;;;;;;10.80;6.55;;;;;;;8.61;100.00;99870.44;5021721;28;20056;-44
2022/11/11 06:39:22;;;;;;;12.90;6.15;;;;;;;8.51;100.00;99841.31;5008252;28;20066;-47
2022/11/11 06:42:08;;;;;;;11.80;6.57;;;;;;;8.40;100.00;99828.59;4995719;28;20046;-49
2022/11/11 06:44:52;;;;;;;14.68;5.65;;;;;;;8.68;100.00;99872.88;5003418;28;20057;-50
2022/11/11 06:47:36;;;;;;;9.73;6.00;;;;;;;8.70;100.00;99880.59;5008642;28;20041;-48
2022/11/11 06:50:21;;;;;;;11.15;5.80;;;;;;;8.73;100.00;99881.38;5023238;28;20041;-48
2022/11/11 06:53:07;;;;;;;8.07;4.38;;;;;;;8.73;100.00;99883.13;5001076;28;20120;-46
2022/11/11 06:55:52;;;;;;;11.88;6.18;;;;;;;8.70;100.00;99885.78;5013613;28;20045;-46
2022/11/11 06:58:36;;;;;;;8.38;4.72;;;;;;;8.67;100.00;99878.09;5006863;28;20041;-52
2022/11/11 07:01:21;;;;;;;10.93;5.95;;;;;;;8.69;100.00;99878.91;5008766;28;20136;-44
2022/11/11 07:04:05;;;;;;;10.23;6.28;;;;;;;8.76;100.00;99880.44;5008296;28;20033;-45
2022/11/11 07:06:49;;;;;;;9.63;4.80;;;;;;;8.73;100.00;99876.22;5007133;28;20048;-46
2022/11/11 07:09:33;;;;;;;8.05;4.10;;;;;;;8.75;100.00;99887.38;4994204;28;20696;-45
2022/11/11 07:12:18;;;;;;;8.98;5.70;;;;;;;8.73;100.00;99883.97;5022299;28;20033;-47
2022/11/11 07:15:03;;;;;;;9.48;5.18;;;;;;;8.59;100.00;99857.50;5020726;28;20513;-43
2022/11/11 07:17:47;;;;;;;11.25;5.60;;;;;;;8.61;100.00;99863.53;5018989;28;20049;-47
2022/11/11 07:20:32;;;;;;;9.80;5.78;;;;;;;8.83;100.00;99887.19;5004544;28;20481;-47
2022/11/11 07:23:16;;;;;;;12.50;5.65;;;;;;;8.61;100.00;99860.94;5005842;28;20433;-48
2022/11/11 07:26:01;;;;;;;12.23;6.03;;;;;;;8.66;100.00;99855.63;5006580;28;20147;-47
2022/11/11 07:28:45;;;;;;;12.05;6.25;;;;;;;8.83;100.00;99880.28;5006580;28;20044;-46
2022/11/11 07:31:30;;;;;;;8.75;4.60;;;;;;;8.96;100.00;99895.53;5006179;28;20069;-46
2022/11/11 07:34:15;;;;;;;9.48;5.63;;;;;;;8.90;100.00;99902.56;5004989;28;20049;-45
2022/11/11 07:36:59;;;;;;;13.95;6.18;;;;;;;8.90;100.00;99902.56;5004771;28;20528;-47
2022/11/11 07:39:43;;;;;;;13.70;6.05;;;;;;;9.03;100.00;99900.53;5004080;28;20050;-46
2022/11/11 07:42:28;;;;;;;10.10;5.85;;;;;;;9.09;100.00;99908.16;5022684;28;20116;-49
2022/11/11 07:45:14;;;;;;;10.27;5.53;;;;;;;9.03;100.00;99905.72;4997689;28;20488;-47
2022/11/11 07:47:58;;;;;;;9.15;5.35;;;;;;;9.03;100.00;99905.72;5001703;28;20037;-50
2022/11/11 07:50:42;;;;;;;8.98;5.32;;;;;;;8.93;100.00;99899.91;5006275;28;20046;-46
2022/11/11 07:53:27;;;;;;;9.10;4.70;;;;;;;8.98;100.00;99922.28;5007323;28;20061;-45
2022/11/11 07:56:11;;;;;;;13.85;6.55;;;;;;;8.90;100.00;99909.47;4989155;28;20099;-48
2022/11/11 07:58:55;;;;;;;10.95;5.97;;;;;;;8.95;100.00;99924.97;5002488;28;20160;-45
2022/11/11 08:01:39;;;;;;;10.75;5.28;;;;;;;9.01;100.00;99928.22;5000501;28;20412;-44
2022/11/11 08:04:24;;;;;;;11.15;5.68;;;;;;;8.93;100.00;99918.06;5005100;28;20148;-45
2022/11/11 08:07:08;;;;;;;9.52;5.78;;;;;;;8.91;100.00;99917.22;5007108;28;20045;-45
2022/11/11 08:09:52;;;;;;;10.23;6.25;;;;;;;8.92;100.00;99908.56;5005193;28;20100;-49
2022/11/11 08:15:41;;;;;;;11.48;6.28;;;;;;;9.02;100.00;99905.75;5007373;28;20042;-48
2022/11/11 08:18:25;;;;;;;11.68;6.13;;;;;;;8.85;100.00;99882.81;4995450;28;20042;-44
2022/11/11 08:21:09;;;;;;;9.90;5.80;;;;;;;9.05;100.00;99900.50;5003931;28;20049;-45
2022/11/11 08:23:54;;;;;;;11.52;6.00;;;;;;;9.03;100.00;99890.16;5005116;28;20207;-50
2022/11/11 08:26:39;;;;;;;11.82;5.72;;;;;;;8.97;100.00;99894.63;5003114;28;20038;-49
2022/11/11 08:29:23;;;;;;;15.02;6.60;;;;;;;9.02;100.00;99891.03;5004347;28;20089;-45
2022/11/11 08:32:07;;;;;;;12.27;4.97;;;;;;;8.93;100.00;99868.78;5006145;28;20496;-46
2022/11/11 08:34:52;;;;;;;12.55;6.47;;;;;;;9.17;100.00;99898.44;5020555;28;20410;-44
2022/11/11 08:37:36;;;;;;;11.23;5.85;;;;;;;9.22;100.00;99890.53;5005831;28;20049;-46
2022/11/11 08:40:21;;;;;;;12.25;5.80;;;;;;;9.21;100.00;99891.44;5007343;28;20485;-47
2022/11/11 08:43:06;;;;;;;11.38;5.85;;;;;;;9.28;100.00;99887.78;5005728;28;20041;-47
2022/11/11 08:45:52;;;;;;;10.68;4.75;;;;;;;9.12;100.00;99865.72;5020023;28;20197;-47
2022/11/11 08:48:36;;;;;;;12.95;5.95;;;;;;;9.14;100.00;99866.53;5007494;28;20042;-43
2022/11/11 08:51:21;;;;;;;13.30;6.03;;;;;;;9.29;100.00;99885.16;4992968;28;20042;-47
2022/11/11 08:54:05;;;;;;;8.88;5.45;;;;;;;9.18;100.00;99868.16;5004989;28;20054;-51
2022/11/11 08:56:50;;;;;;;11.18;5.32;;;;;;;9.33;100.00;99893.72;5007165;28;20557;-49
2022/11/11 08:59:35;;;;;;;10.32;5.45;;;;;;;9.37;100.00;99894.50;5006382;28;20046;-45
2022/11/11 09:02:19;;;;;;;11.45;5.30;;;;;;;9.44;100.00;99888.25;5003418;28;20117;-48
2022/11/11 09:05:05;;;;;;;12.50;5.47;;;;;;;9.53;100.00;99888.84;5004937;28;20045;-48
2022/11/11 09:07:49;;;;;;;12.43;5.72;;;;;;;9.54;99.96;99898.34;4989608;28;20049;-49
2022/11/11 09:10:35;;;;;;;9.05;5.13;;;;;;;9.56;100.00;99893.13;5009499;28;20083;-54
2022/11/11 09:13:20;;;;;;;8.02;4.40;;;;;;;9.63;99.40;99897.25;5010319;28;20098;-46
2022/11/11 09:16:05;;;;;;;9.38;5.85;;;;;;;9.38;98.49;99873.69;5018280;28;20492;-47
2022/11/11 09:18:49;;;;;;;9.43;4.78;;;;;;;9.54;98.69;99910.47;5009737;28;20050;-47
2022/11/11 09:21:33;;;;;;;7.60;4.45;;;;;;;9.54;97.59;99900.94;5010504;28;20057;-45
2022/11/11 09:24:18;;;;;;;7.68;5.15;;;;;;;9.51;97.32;99902.75;5009603;28;20042;-47
2022/11/11 09:27:02;;;;;;;8.27;4.75;;;;;;;9.49;97.44;99904.53;5007813;28;20037;-53
2022/11/11 09:29:47;;;;;;;9.43;4.93;;;;;;;9.57;97.59;99913.00;5006204;28;20205;-47
2022/11/11 09:32:32;;;;;;;8.00;5.05;;;;;;;9.57;96.94;99907.81;5011755;28;20046;-45
2022/11/11 09:35:17;;;;;;;9.27;5.10;;;;;;;9.55;96.78;99910.44;5009512;28;20049;-52
2022/11/11 09:38:02;;;;;;;9.20;4.68;;;;;;;9.52;96.66;99909.66;5010341;28;20476;-47
2022/11/11 09:41:10;;;;;;;7.63;4.72;;;;;;;9.52;96.59;99922.66;5007808;28;20050;-49
2022/11/11 09:44:04;;;;;;;9.45;4.97;;;;;;;9.51;96.46;99907.97;5020390;28;20053;-48
2022/11/11 09:47:07;;;;;;;8.20;4.10;;;;;;;9.54;96.83;99919.09;5004280;28;20040;-51
2022/11/11 09:50:10;;;;;;;7.28;3.92;;;;;;;9.52;96.78;99917.44;5003278;28;20053;-47
2022/11/11 09:52:57;;;;;;;7.55;4.32;;;;;;;9.42;96.92;99918.59;5005859;28;20108;-51
2022/11/11 09:55:43;;;;;;;6.10;3.90;;;;;;;9.13;97.05;99865.69;5002256;28;20045;-47
2022/11/11 09:58:43;;;;;;;6.57;4.13;;;;;;;9.46;97.31;99913.28;5021280;28;20041;-49
2022/11/11 10:01:33;;;;;;;9.02;4.70;;;;;;;9.45;97.22;99919.34;4995302;28;20046;-50
2022/11/11 10:04:56;;;;;;;8.70;4.38;;;;;;;9.59;96.65;99918.97;4999277;28;20060;-46
2022/11/11 10:07:46;;;;;;;10.15;4.47;;;;;;;9.55;96.98;99927.75;5008621;28;20042;-47
2022/11/11 10:10:40;;;;;;;7.35;4.10;;;;;;;9.46;97.08;99934.03;5006333;28;20128;-46
2022/11/11 10:13:33;;;;;;;7.38;4.50;;;;;;;9.43;97.27;99922.84;5006928;28;20053;-51
2022/11/11 10:16:42;;;;;;;7.88;4.68;;;;;;;9.45;97.56;99934.06;5008030;28;20048;-44
2022/11/11 10:19:28;;;;;;;9.00;4.10;;;;;;;9.52;97.96;99939.06;5006812;28;20041;-47
2022/11/11 10:22:22;;;;;;;9.15;4.05;;;;;;;9.58;96.89;99930.25;5000313;28;20111;-49
2022/11/11 10:25:12;;;;;;;7.22;4.00;;;;;;;9.54;96.61;99933.81;5006628;28;20046;-49
2022/11/11 10:27:59;;;;;;;7.20;3.95;;;;;;;9.52;96.89;99936.47;5008622;28;20038;-46
2022/11/11 10:30:45;;;;;;;7.60;3.90;;;;;;;9.53;96.84;99945.09;5002952;28;20069;-50
2022/11/11 10:34:03;;;;;;;7.50;4.10;;;;;;;9.54;97.15;99957.19;4976532;28;20042;-51
2022/11/11 10:36:50;;;;;;;6.45;3.67;;;;;;;9.58;96.33;99948.41;5021848;28;20119;-46
2022/11/11 10:39:58;;;;;;;5.15;3.55;;;;;;;9.54;96.66;99955.44;5007718;28;20175;-44
2022/11/11 10:42:42;;;;;;;7.85;4.03;;;;;;;9.46;96.69;99930.59;4989350;28;20041;-46
2022/11/11 10:45:30;;;;;;;8.93;4.05;;;;;;;9.62;96.41;99963.03;5007567;28;20037;-48
2022/11/11 10:48:19;;;;;;;7.85;4.50;;;;;;;9.59;96.83;99963.09;5006417;28;20116;-44
2022/11/11 10:51:04;;;;;;;;;;;;;;;9.58;96.82;99954.47;5004175;28;20133;-46
2022/11/11 10:54:05;;;;;;;6.65;3.55;;;;;;;9.56;96.66;99963.19;5023033;28;19917;-47
2022/11/11 10:57:04;;;;;;;6.50;4.07;;;;;;;9.57;97.06;99954.53;5007864;28;20153;-46
2022/11/11 10:59:48;;;;;;;7.88;4.10;;;;;;;9.52;97.78;99967.63;5005754;28;20050;-45
2022/11/11 11:03:03;;;;;;;5.03;2.40;;;;;;;9.51;97.84;99965.91;4990657;28;20588;-42
2022/11/11 11:06:05;;;;;;;6.15;3.60;;;;;;;9.49;98.20;99969.41;5010247;28;20147;-47
2022/11/11 11:09:16;;;;;;;6.13;3.80;;;;;;;9.50;97.94;99958.16;4980989;28;20458;-46
2022/11/11 11:12:21;;;;;;;10.13;3.70;;;;;;;9.60;97.97;99967.41;5006931;28;20073;-47
2022/11/11 11:15:26;;;;;;;6.88;4.07;;;;;;;9.62;98.13;99971.69;5007882;28;20049;-47
2022/11/11 11:18:12;;;;;;;6.80;4.03;;;;;;;9.72;97.69;99975.75;4999893;28;20053;-49
2022/11/11 11:21:02;;;;;;;7.70;4.38;;;;;;;9.73;97.86;99977.41;5005570;28;20536;-46
2022/11/11 11:23:47;;;;;;;10.88;4.07;;;;;;;9.55;97.73;99972.72;5000749;28;20049;-47
2022/11/11 11:26:46;;;;;;;6.43;3.88;;;;;;;9.46;98.13;99960.00;5004128;28;20106;-46
2022/11/11 11:29:41;;;;;;;7.05;3.90;;;;;;;9.62;98.05;99986.41;5005462;28;20429;-43
2022/11/11 11:32:30;;;;;;;8.02;4.40;;;;;;;9.54;98.68;99994.38;5002582;28;20042;-46
2022/11/11 11:35:35;;;;;;;;;;;;;;;9.52;99.08;100003.97;5008492;28;20056;-47
2022/11/11 11:38:19;;;;;;;6.28;4.07;;;;;;;9.44;99.01;99992.91;5020461;28;19921;-46
2022/11/11 11:41:04;;;;;;;8.40;4.47;;;;;;;9.25;100.00;99963.97;5012495;28;20053;-44
2022/11/11 11:43:48;;;;;;;9.60;5.40;;;;;;;9.44;100.00;99992.91;5006737;28;20037;-44
2022/11/11 11:46:43;;;;;;;9.50;4.85;;;;;;;9.44;100.00;99976.47;5006885;28;20037;-42
2022/11/11 11:49:33;;;;;;;9.07;5.53;;;;;;;9.45;100.00;99979.03;5019251;28;20042;-45
2022/11/11 11:52:25;;;;;;;12.82;5.90;;;;;;;9.55;100.00;99979.66;5005510;28;20089;-44
2022/11/11 11:55:25;;;;;;;6.60;4.63;;;;;;;9.56;100.00;99977.03;4993288;28;20045;-44
2022/11/11 11:58:23;;;;;;;8.27;5.25;;;;;;;9.45;100.00;99971.25;4999920;28;20049;-42
2022/11/11 12:01:11;;;;;;;11.55;5.63;;;;;;;9.48;100.00;99976.34;5003453;28;20510;-44
2022/11/11 12:04:09;;;;;;;7.97;4.93;;;;;;;9.45;100.00;99971.25;4989599;28;20041;-46
2022/11/11 12:07:12;;;;;;;;;;;;;;;9.39;100.00;99974.00;5007430;28;20424;-46
2022/11/11 12:10:24;;;;;;;8.88;5.10;;;;;;;9.27;100.00;99979.47;5007243;28;19940;-47
2022/11/11 12:13:15;;;;;;;8.88;4.13;;;;;;;9.23;100.00;99965.75;5006778;28;20685;-47
2022/11/11 12:16:18;;;;;;;9.27;5.13;;;;;;;9.23;100.00;99975.25;4992226;28;20505;-48
2022/11/11 12:19:16;;;;;;;10.20;4.93;;;;;;;9.21;100.00;99969.28;4989806;28;20108;-43
2022/11/11 12:22:03;;;;;;;11.23;4.78;;;;;;;9.27;100.00;99966.50;5015456;28;20058;-40
2022/11/11 12:25:02;;;;;;;11.90;5.90;;;;;;;9.37;100.00;99960.19;5004114;28;20127;-41
2022/11/11 12:27:52;;;;;;;11.13;5.28;;;;;;;9.34;100.00;99965.47;5001139;28;20043;-46
2022/11/11 12:30:40;;;;;;;10.95;5.75;;;;;;;9.16;100.00;99947.78;5001180;28;20058;-46
2022/11/11 12:33:43;;;;;;;13.40;5.18;;;;;;;9.31;100.00;99960.38;5004434;28;20042;-46
2022/11/11 12:36:27;;;;;;;7.63;4.65;;;;;;;9.31;100.00;99963.81;5017961;28;20046;-44
2022/11/11 12:39:17;;;;;;;7.28;4.47;;;;;;;9.28;100.00;99960.44;5002446;28;20575;-42
2022/11/11 12:42:28;;;;;;;9.23;5.03;;;;;;;9.33;100.00;99964.63;5005179;28;20575;-52
2022/11/11 12:45:22;;;;;;;8.13;3.90;;;;;;;9.32;100.00;99962.06;4996613;28;20120;-48
2022/11/11 12:48:53;;;;;;;6.65;3.50;;;;;;;9.34;100.00;99961.13;5010432;28;20041;-47
2022/11/11 12:51:59;;;;;;;9.40;4.00;;;;;;;9.26;100.00;99957.03;4998837;28;20049;-48
2022/11/11 12:55:13;;;;;;;7.43;3.78;;;;;;;9.24;100.00;99959.66;5010722;28;20045;-44
2022/11/11 12:58:14;;;;;;;9.57;4.60;;;;;;;9.26;100.00;99963.06;4982913;28;20099;-44
2022/11/11 13:01:10;;;;;;;6.57;4.15;;;;;;;9.23;100.00;99949.31;5009706;28;20042;-48
2022/11/11 13:04:32;;;;;;;7.78;4.78;;;;;;;9.30;100.00;99954.31;5017664;28;20038;-51
2022/11/11 13:07:54;;;;;;;8.60;4.18;;;;;;;9.33;100.00;99951.66;5025859;28;20468;-46
2022/11/11 13:10:58;;;;;;;8.63;4.60;;;;;;;9.38;100.00;99955.84;5021974;28;20034;-47
2022/11/11 13:13:42;;;;;;;5.18;3.00;;;;;;;9.31;100.00;99944.81;5011075;28;20048;-49
2022/11/11 13:16:27;;;;;;;8.35;4.30;;;;;;;9.17;100.00;99932.16;5006732;28;20104;-45
2022/11/11 13:19:31;;;;;;;8.68;3.88;;;;;;;9.29;100.00;99952.63;5011861;28;20103;-46
2022/11/11 13:22:25;;;;;;;6.78;3.95;;;;;;;9.27;100.00;99956.97;5010621;28;20061;-48
2022/11/11 13:25:14;;;;;;;8.68;4.38;;;;;;;9.18;100.00;99946.84;5011524;28;20034;-46
2022/11/11 13:28:03;;;;;;;;;;;;;;;9.30;100.00;99961.25;4991883;28;20050;-50
2022/11/11 13:30:50;;;;;;;;;;;;;;;9.25;100.00;99951.00;5009148;28;19928;-45
2022/11/11 13:33:50;;;;;;;7.05;4.97;;;;;;;9.18;100.00;99961.56;5024918;28;20385;-44
2022/11/11 13:36:47;;;;;;;12.43;4.38;;;;;;;9.11;100.00;99941.81;5009821;28;20465;-46
2022/11/11 13:39:37;;;;;;;6.55;4.20;;;;;;;9.24;100.00;99961.41;5010322;28;20049;-49
2022/11/11 13:42:25;;;;;;;8.40;5.03;;;;;;;9.19;100.00;99955.47;5004177;28;20049;-47
2022/11/11 13:45:26;;;;;;;7.25;3.25;;;;;;;9.30;100.00;99972.50;4996078;28;20037;-43
2022/11/11 13:48:34;;;;;;;7.25;4.45;;;;;;;9.24;100.00;99967.44;4990827;28;20104;-47
2022/11/11 13:51:37;;;;;;;7.10;3.40;;;;;;;9.27;100.00;99967.34;5018140;28;20184;-44
2022/11/11 13:54:33;;;;;;;6.82;3.33;;;;;;;9.25;100.00;99965.72;5016188;28;20104;-48
2022/11/11 13:57:21;;;;;;;4.55;2.88;;;;;;;9.27;100.00;99956.97;5001419;28;20153;-48
2022/11/11 14:00:35;;;;;;;4.05;2.63;;;;;;;9.35;100.00;99956.81;4992962;28;20053;-47
2022/11/11 14:03:20;;;;;;;7.53;3.53;;;;;;;9.41;98.82;99961.84;5007356;28;20046;-44
2022/11/11 14:06:14;;;;;;;5.18;3.10;;;;;;;9.39;97.56;99965.34;5006069;28;20065;-44
2022/11/11 14:08:59;;;;;;;5.93;3.40;;;;;;;9.24;96.79;99933.72;5007223;28;20048;-49
2022/11/11 14:11:43;;;;;;;7.75;3.15;;;;;;;9.43;96.21;99944.47;5007068;28;20532;-47
2022/11/11 14:14:33;;;;;;;7.35;3.30;;;;;;;9.44;95.44;99953.13;5010167;28;20053;-47
2022/11/11 14:17:18;;;;;;;7.25;3.38;;;;;;;9.43;95.07;99947.06;4991935;28;20054;-49
2022/11/11 14:20:41;;;;;;;7.15;3.63;;;;;;;9.43;94.84;99954.84;5023245;28;20282;-47